Time;durP1;ratioP1;P1;durP2;ratioP2;P2;SDS_P1;SDS_P2;PMS_P1;PMS_P2;Temp;Humidity;BMP_temperature;BMP_pressure;BME280_temperature;BME280_humidity;BME280_pressure;Samples;Min_cycle;Max_cycle;Signal;HPM_P1;HPM_P2
2024/01/21 00:00:21;;;;;;;31.00;16.30;;;;;;;-1.55;76.96;100188.57;226568;1272;22546;-73
2024/01/21 00:05:23;;;;;;;31.20;15.60;;;;;;;-1.51;77.07;100191.14;226753;1271;24240;-73
2024/01/21 00:10:26;;;;;;;34.70;16.30;;;;;;;-1.48;77.15;100188.52;226604;1276;22550;-73
2024/01/21 00:15:28;;;;;;;31.20;15.10;;;;;;;-1.47;77.02;100192.99;226589;1273;23257;-73
2024/01/21 00:20:32;;;;;;;30.60;15.00;;;;;;;-1.44;76.96;100198.37;226601;1274;22539;-73
2024/01/21 00:25:34;;;;;;;24.20;13.70;;;;;;;-1.39;77.10;100204.36;226541;1271;22947;-73
2024/01/21 00:30:36;;;;;;;30.30;14.50;;;;;;;-1.35;77.25;100202.96;226634;1276;22539;-72
2024/01/21 00:35:38;;;;;;;30.90;15.50;;;;;;;-1.37;76.74;100205.45;226565;1276;22537;-73
2024/01/21 00:40:40;;;;;;;28.80;14.10;;;;;;;-1.37;76.85;100206.68;226572;1276;25492;-73
2024/01/21 00:45:43;;;;;;;26.20;14.00;;;;;;;-1.35;76.84;100208.33;226517;1270;22549;-72
2024/01/21 00:50:45;;;;;;;29.00;15.90;;;;;;;-1.36;76.77;100214.23;226625;1271;22549;-72
2024/01/21 00:55:47;;;;;;;27.60;14.80;;;;;;;-1.35;76.78;100221.46;226529;1274;22551;-73
2024/01/21 01:00:49;;;;;;;28.50;15.10;;;;;;;-1.35;76.55;100233.73;226590;1269;22565;-73
2024/01/21 01:05:52;;;;;;;29.50;15.40;;;;;;;-1.34;77.21;100232.64;226641;1271;22553;-73
2024/01/21 01:10:54;;;;;;;29.40;15.20;;;;;;;-1.34;77.11;100234.49;226449;1273;22550;-73
2024/01/21 01:15:58;;;;;;;30.50;16.70;;;;;;;-1.34;77.11;100233.28;226626;1269;22537;-72
2024/01/21 01:21:00;;;;;;;31.60;15.80;;;;;;;-1.32;77.07;100232.70;226588;1275;22546;-72
2024/01/21 01:26:07;;;;;;;33.70;16.40;;;;;;;-1.32;77.04;100231.13;226662;1268;22559;-72
2024/01/21 01:31:09;;;;;;;31.30;15.10;;;;;;;-1.34;77.00;100237.08;226578;1276;22629;-73
2024/01/21 01:36:11;;;;;;;28.90;15.50;;;;;;;-1.33;77.21;100240.50;226510;1274;22560;-73
2024/01/21 01:41:13;;;;;;;29.20;14.60;;;;;;;-1.32;77.30;100244.06;226470;1274;22643;-73
2024/01/21 01:46:16;;;;;;;30.70;15.40;;;;;;;-1.31;77.48;100244.37;226619;1273;23454;-73
2024/01/21 01:51:19;;;;;;;26.10;14.00;;;;;;;-1.29;77.39;100244.41;226582;1276;22539;-73
2024/01/21 01:56:22;;;;;;;27.20;15.10;;;;;;;-1.26;77.32;100237.89;226767;1271;22544;-72
2024/01/21 02:01:25;;;;;;;28.90;15.70;;;;;;;-1.26;77.34;100233.42;226592;1273;22549;-72
2024/01/21 02:06:27;;;;;;;32.60;16.40;;;;;;;-1.26;77.44;100239.28;226692;1268;22541;-73
2024/01/21 02:11:29;;;;;;;29.00;15.10;;;;;;;-1.22;77.41;100242.71;226537;1275;22552;-72
2024/01/21 02:16:31;;;;;;;26.60;15.40;;;;;;;-1.19;77.51;100239.62;226607;1273;25327;-73
2024/01/21 02:21:33;;;;;;;27.90;14.80;;;;;;;-1.17;77.71;100240.35;226590;1273;22545;-73
2024/01/21 02:26:35;;;;;;;25.40;14.50;;;;;;;-1.13;77.66;100252.27;226399;1274;22553;-73
2024/01/21 02:31:37;;;;;;;27.70;14.60;;;;;;;-1.06;77.67;100255.52;226420;1274;22562;-74
2024/01/21 02:36:39;;;;;;;25.20;15.10;;;;;;;-1.02;77.64;100254.98;226594;1268;22553;-73
2024/01/21 02:41:41;;;;;;;24.20;14.10;;;;;;;-1.03;77.65;100251.61;226603;1273;22542;-73
2024/01/21 02:46:43;;;;;;;29.40;16.20;;;;;;;-1.04;77.75;100252.52;226639;1273;22550;-73
2024/01/21 02:51:45;;;;;;;27.00;16.50;;;;;;;-1.04;77.59;100250.96;226591;1274;22556;-73
2024/01/21 02:56:47;;;;;;;27.60;15.10;;;;;;;-1.03;77.84;100245.52;226489;1274;23870;-73
2024/01/21 03:01:49;;;;;;;28.80;15.90;;;;;;;-1.00;77.81;100246.45;226632;1273;22539;-73
2024/01/21 03:06:51;;;;;;;30.30;14.60;;;;;;;-1.00;77.58;100245.41;226610;1268;23493;-73
2024/01/21 03:11:56;;;;;;;27.90;15.40;;;;;;;-1.02;77.54;100243.91;226608;1271;22537;-73
2024/01/21 03:16:58;;;;;;;31.50;15.60;;;;;;;-1.00;77.86;100238.15;226618;1272;22542;-73
2024/01/21 03:22:00;;;;;;;29.30;15.50;;;;;;;-0.98;78.14;100240.10;226591;1273;22665;-73
2024/01/21 03:27:02;;;;;;;31.10;16.60;;;;;;;-0.98;77.92;100241.12;226615;1273;22557;-74
2024/01/21 03:32:04;;;;;;;30.00;17.70;;;;;;;-0.97;78.10;100248.19;226620;1272;22539;-73
2024/01/21 03:37:06;;;;;;;33.30;18.40;;;;;;;-0.97;77.96;100252.17;226679;1274;22557;-73
2024/01/21 03:42:08;;;;;;;33.60;19.20;;;;;;;-1.00;77.86;100256.43;226624;1274;22606;-73
2024/01/21 03:47:10;;;;;;;28.50;17.30;;;;;;;-0.99;78.15;100259.72;226438;1276;22531;-73
2024/01/21 03:52:12;;;;;;;34.00;19.70;;;;;;;-0.97;78.33;100255.78;226631;1274;22530;-74
2024/01/21 03:57:14;;;;;;;33.30;19.10;;;;;;;-0.91;78.67;100258.23;226644;1273;22568;-73
2024/01/21 04:02:16;;;;;;;29.90;18.30;;;;;;;-0.85;78.62;100267.23;226617;1271;22513;-73
2024/01/21 04:07:18;;;;;;;33.70;20.70;;;;;;;-0.86;78.32;100269.55;226641;1271;22601;-73
2024/01/21 04:12:20;;;;;;;32.80;19.60;;;;;;;-0.91;78.34;100274.49;226618;1273;22595;-73
2024/01/21 04:17:23;;;;;;;32.60;19.90;;;;;;;-0.87;78.43;100281.22;226617;1271;25263;-73
2024/01/21 04:22:25;;;;;;;32.30;18.80;;;;;;;-0.85;78.93;100279.36;226567;1276;22555;-73
2024/01/21 04:27:27;;;;;;;33.30;20.10;;;;;;;-0.88;78.44;100288.50;226481;1271;22548;-73
2024/01/21 04:32:29;;;;;;;34.30;21.10;;;;;;;-0.88;78.29;100291.11;226578;1271;22575;-73
2024/01/21 04:37:31;;;;;;;35.90;22.50;;;;;;;-0.90;78.50;100295.04;226640;1271;22547;-74
2024/01/21 04:42:33;;;;;;;38.60;22.00;;;;;;;-0.87;78.58;100304.38;226634;1274;25511;-74
2024/01/21 04:47:35;;;;;;;36.50;23.40;;;;;;;-0.86;78.74;100299.48;226660;1275;22558;-74
2024/01/21 04:52:38;;;;;;;42.80;24.10;;;;;;;-0.84;78.45;100301.27;226616;1272;22630;-74
2024/01/21 04:57:40;;;;;;;41.00;24.80;;;;;;;-0.79;78.86;100296.87;226632;1274;22619;-74
2024/01/21 05:02:42;;;;;;;42.00;26.00;;;;;;;-0.75;78.74;100293.69;226402;1271;25636;-73
2024/01/21 05:07:44;;;;;;;40.70;24.50;;;;;;;-0.74;78.59;100295.23;226383;1274;22580;-74
2024/01/21 05:12:46;;;;;;;37.90;23.10;;;;;;;-0.74;78.61;100291.94;226556;1274;22708;-74
2024/01/21 05:17:48;;;;;;;32.90;21.50;;;;;;;-0.72;78.92;100293.89;226577;1273;22610;-73
2024/01/21 05:22:50;;;;;;;35.10;19.90;;;;;;;-0.74;78.42;100296.94;226577;1265;22574;-74
2024/01/21 05:27:52;;;;;;;38.30;22.50;;;;;;;-0.79;78.62;100293.60;226580;1276;22611;-73
2024/01/21 05:32:54;;;;;;;33.20;21.60;;;;;;;-0.80;78.41;100292.63;226690;1273;22548;-75
2024/01/21 05:37:56;;;;;;;34.20;19.80;;;;;;;-0.76;78.76;100295.33;226465;1274;22873;-73
2024/01/21 05:43:00;;;;;;;29.60;19.30;;;;;;;-0.70;78.74;100290.17;226718;1271;22602;-74
2024/01/21 05:48:03;;;;;;;31.30;20.10;;;;;;;-0.67;78.78;100296.92;226617;1276;22553;-74
2024/01/21 05:53:06;;;;;;;31.20;19.70;;;;;;;-0.61;78.61;100303.89;226623;1271;22720;-74
2024/01/21 05:58:09;;;;;;;27.50;18.60;;;;;;;-0.56;78.93;100301.57;226639;1274;25356;-74
2024/01/21 06:03:11;;;;;;;30.90;19.30;;;;;;;-0.55;78.73;100299.78;226536;1272;22696;-74
2024/01/21 06:08:13;;;;;;;30.90;19.20;;;;;;;-0.55;78.51;100297.67;226626;1268;22644;-74
2024/01/21 06:13:15;;;;;;;29.60;20.10;;;;;;;-0.54;78.63;100292.29;226623;1272;22592;-73
2024/01/21 06:18:17;;;;;;;31.40;19.90;;;;;;;-0.56;78.42;100283.57;226610;1268;22727;-74
2024/01/21 06:23:19;;;;;;;34.50;20.60;;;;;;;-0.60;78.35;100288.77;226438;1276;22530;-74
2024/01/21 06:28:21;;;;;;;31.00;19.70;;;;;;;-0.62;78.34;100293.76;226676;1274;22653;-74
2024/01/21 06:33:24;;;;;;;33.70;20.40;;;;;;;-0.68;78.45;100301.30;226752;1274;22547;-73
2024/01/21 06:38:26;;;;;;;33.60;20.80;;;;;;;-0.75;78.25;100300.29;226696;1274;25358;-73
2024/01/21 06:43:28;;;;;;;34.60;20.10;;;;;;;-0.76;78.57;100296.57;226661;1273;22544;-74
2024/01/21 06:48:30;;;;;;;32.10;20.00;;;;;;;-0.73;78.59;100299.65;226610;1274;22579;-75
2024/01/21 06:53:32;;;;;;;29.60;20.10;;;;;;;-0.71;78.78;100292.83;226656;1274;22899;-74
2024/01/21 06:58:34;;;;;;;30.80;19.60;;;;;;;-0.67;78.48;100293.66;226470;1276;22586;-74
2024/01/21 07:03:38;;;;;;;31.50;19.40;;;;;;;-0.64;78.42;100294.20;226603;1276;22539;-74
2024/01/21 07:08:40;;;;;;;31.50;18.90;;;;;;;-0.59;78.56;100294.79;226623;1252;24230;-74
2024/01/21 07:13:42;;;;;;;36.60;20.00;;;;;;;-0.58;78.13;100294.90;226632;1274;22539;-74
2024/01/21 07:18:44;;;;;;;33.20;20.30;;;;;;;-0.54;78.39;100295.52;226492;1270;22556;-74
2024/01/21 07:23:47;;;;;;;32.30;19.70;;;;;;;-0.50;77.93;100296.92;226674;1275;23387;-75
2024/01/21 07:28:49;;;;;;;37.00;19.80;;;;;;;-0.51;77.84;100300.22;226633;1268;22703;-75
2024/01/21 07:33:51;;;;;;;42.90;23.00;;;;;;;-0.48;77.93;100307.72;226488;1276;22778;-74
2024/01/21 07:38:54;;;;;;;34.60;19.40;;;;;;;-0.46;77.70;100315.05;226666;1276;22715;-74
2024/01/21 07:43:56;;;;;;;29.90;18.50;;;;;;;-0.43;77.84;100316.27;226633;1273;22549;-74
2024/01/21 07:48:58;;;;;;;32.00;19.50;;;;;;;-0.43;77.44;100321.25;226435;1274;22560;-74
2024/01/21 07:54:00;;;;;;;28.60;18.30;;;;;;;-0.35;77.67;100321.05;226285;1266;208752;-74
2024/01/21 07:59:02;;;;;;;29.50;18.80;;;;;;;-0.26;77.62;100324.19;226499;1274;22600;-74
2024/01/21 08:04:04;;;;;;;29.00;17.10;;;;;;;-0.18;77.65;100328.77;226467;1274;22550;-74
2024/01/21 08:09:06;;;;;;;28.30;17.10;;;;;;;-0.09;77.63;100334.86;226653;1271;22549;-74
2024/01/21 08:14:08;;;;;;;28.00;17.50;;;;;;;-0.01;77.30;100335.83;226462;1276;22540;-74
2024/01/21 08:19:10;;;;;;;30.10;17.70;;;;;;;0.07;77.38;100336.27;226618;1273;22550;-75
2024/01/21 08:24:14;;;;;;;31.30;17.30;;;;;;;0.14;77.07;100332.58;226443;1274;22547;-73
2024/01/21 08:29:16;;;;;;;26.70;17.70;;;;;;;0.28;77.45;100333.53;226482;1274;22546;-76
2024/01/21 08:34:17;;;;;;;28.00;16.00;;;;;;;0.48;77.34;100337.09;226574;1276;25348;-74
2024/01/21 08:39:21;;;;;;;27.40;16.60;;;;;;;0.58;76.95;100341.02;226662;1272;22565;-75
2024/01/21 08:44:23;;;;;;;31.10;15.70;;;;;;;0.64;76.55;100346.23;226488;1276;22552;-76
2024/01/21 08:49:26;;;;;;;25.00;14.40;;;;;;;0.75;76.53;100353.40;226430;1276;22555;-74
2024/01/21 08:54:28;;;;;;;23.80;12.70;;;;;;;0.91;76.12;100350.61;226654;1273;22546;-74
2024/01/21 08:59:30;;;;;;;23.90;14.40;;;;;;;1.09;76.06;100353.91;226636;1276;22550;-74
2024/01/21 09:04:32;;;;;;;26.80;14.80;;;;;;;1.24;76.03;100360.66;226606;1273;22547;-75
2024/01/21 09:09:35;;;;;;;25.80;14.10;;;;;;;1.38;75.91;100353.73;226577;1275;22594;-75
2024/01/21 09:14:37;;;;;;;26.40;14.90;;;;;;;1.52;75.50;100348.55;226429;1275;23045;-75
2024/01/21 09:19:39;;;;;;;30.20;16.30;;;;;;;1.57;74.89;100345.30;226605;1273;22573;-75
2024/01/21 09:24:41;;;;;;;33.00;18.90;;;;;;;1.67;75.22;100344.83;226609;1276;23206;-75
2024/01/21 09:29:43;;;;;;;28.40;17.20;;;;;;;1.90;75.38;100343.59;226567;1272;22617;-75
2024/01/21 09:34:45;;;;;;;26.20;15.60;;;;;;;2.17;75.28;100345.74;226617;1272;22574;-75
2024/01/21 09:39:48;;;;;;;29.50;17.50;;;;;;;2.44;75.20;100345.73;226615;1273;22543;-74
2024/01/21 09:44:50;;;;;;;29.20;17.10;;;;;;;2.84;75.49;100338.64;226622;1275;22558;-75
2024/01/21 09:49:52;;;;;;;29.70;17.70;;;;;;;3.27;75.51;100334.15;226583;1272;22543;-73
2024/01/21 09:54:54;;;;;;;34.40;18.90;;;;;;;3.60;74.66;100324.95;226626;1275;22645;-74
2024/01/21 09:59:56;;;;;;;29.40;17.70;;;;;;;3.78;74.20;100314.27;226519;1273;22590;-73
2024/01/21 10:04:58;;;;;;;30.30;17.60;;;;;;;3.83;73.99;100308.52;226503;1271;24773;-75
2024/01/21 10:10:00;;;;;;;33.10;18.10;;;;;;;3.86;73.55;100315.64;226609;1276;22571;-75
2024/01/21 10:15:02;;;;;;;29.10;18.30;;;;;;;3.86;73.52;100312.30;226547;1272;22772;-74
2024/01/21 10:20:10;;;;;;;32.20;17.40;;;;;;;3.80;73.41;100312.58;226636;1276;25285;-75
2024/01/21 10:25:13;;;;;;;31.80;17.50;;;;;;;3.63;72.84;100312.38;226612;1273;24930;-75
2024/01/21 10:30:18;;;;;;;31.50;18.30;;;;;;;3.55;72.85;100302.98;226611;1272;22546;-75
2024/01/21 10:35:20;;;;;;;36.70;19.10;;;;;;;3.66;73.16;100297.35;226636;1276;22550;-75
2024/01/21 10:40:23;;;;;;;34.00;18.10;;;;;;;3.73;73.04;100282.54;226612;1275;22558;-74
2024/01/21 10:45:26;;;;;;;31.40;17.50;;;;;;;3.79;72.83;100274.48;226661;1275;22542;-75
2024/01/21 10:50:29;;;;;;;26.60;16.50;;;;;;;3.83;72.75;100269.52;226617;1272;25271;-74
2024/01/21 10:55:31;;;;;;;30.40;16.70;;;;;;;3.86;72.68;100265.10;226618;1272;22546;-74
2024/01/21 11:00:34;;;;;;;24.90;15.30;;;;;;;3.91;72.66;100265.98;226504;1273;24282;-74
2024/01/21 11:05:37;;;;;;;27.60;14.60;;;;;;;4.02;72.62;100256.62;226593;1273;22542;-75
2024/01/21 11:10:39;;;;;;;28.70;14.30;;;;;;;4.14;72.67;100254.20;226539;1273;22540;-74
2024/01/21 11:15:47;;;;;;;22.40;12.80;;;;;;;4.21;72.52;100248.47;226586;1273;24260;-74
2024/01/21 11:20:56;;;;;;;23.90;12.30;;;;;;;4.21;72.20;100261.69;226592;1273;22538;-74
2024/01/21 11:25:58;;;;;;;27.40;15.20;;;;;;;4.20;72.17;100259.98;226543;1276;22553;-75
2024/01/21 11:31:07;;;;;;;26.50;14.00;;;;;;;4.19;71.81;100257.85;226603;1276;25422;-74
2024/01/21 11:36:10;;;;;;;29.20;15.60;;;;;;;4.25;72.02;100249.52;226604;1273;22572;-75
2024/01/21 11:41:14;;;;;;;29.60;16.10;;;;;;;4.36;72.18;100244.38;226579;1272;22618;-75
2024/01/21 11:46:16;;;;;;;28.80;14.40;;;;;;;4.47;72.17;100245.52;226595;1273;22546;-74
2024/01/21 11:51:18;;;;;;;29.20;15.30;;;;;;;4.48;71.73;100230.17;226541;1273;22552;-75
2024/01/21 11:56:20;;;;;;;31.20;15.70;;;;;;;4.52;71.67;100221.37;226523;1276;22548;-74
2024/01/21 12:01:22;;;;;;;27.40;16.00;;;;;;;4.59;71.89;100208.77;226540;1272;22587;-75
2024/01/21 12:06:26;;;;;;;25.80;13.70;;;;;;;4.63;71.03;100199.81;226510;1273;22565;-74
2024/01/21 12:11:36;;;;;;;27.70;14.50;;;;;;;4.58;70.82;100199.79;226635;1271;22584;-75
2024/01/21 12:16:38;;;;;;;25.40;13.10;;;;;;;4.57;71.16;100200.96;226547;1273;22621;-75
2024/01/21 12:21:43;;;;;;;24.90;13.50;;;;;;;4.58;70.95;100189.54;226504;1273;22564;-74
2024/01/21 12:26:45;;;;;;;25.20;11.90;;;;;;;4.64;71.02;100183.70;226583;1270;22570;-75
2024/01/21 12:31:49;;;;;;;27.80;13.10;;;;;;;4.70;70.87;100173.30;226597;1273;22542;-75
2024/01/21 12:36:52;;;;;;;20.90;11.00;;;;;;;4.73;70.65;100172.67;226556;1273;22554;-75
2024/01/21 12:41:54;;;;;;;19.70;10.60;;;;;;;4.73;70.79;100170.42;226584;1276;22542;-75
2024/01/21 12:46:56;;;;;;;18.80;9.70;;;;;;;4.75;70.69;100160.48;226539;1274;22563;-75
2024/01/21 12:51:58;;;;;;;15.50;9.80;;;;;;;4.77;70.85;100152.48;226437;1273;22560;-75
2024/01/21 12:57:02;;;;;;;17.20;10.50;;;;;;;4.77;70.86;100158.08;226478;1276;22582;-74
2024/01/21 13:02:04;;;;;;;17.10;10.20;;;;;;;4.74;70.33;100153.56;226562;1273;22585;-74
2024/01/21 13:07:07;;;;;;;18.00;9.50;;;;;;;4.65;70.41;100147.48;226569;1276;22571;-75
2024/01/21 13:12:09;;;;;;;17.00;9.30;;;;;;;4.54;70.03;100145.14;226505;1273;24284;-74
2024/01/21 13:17:11;;;;;;;14.80;8.20;;;;;;;4.50;70.70;100150.33;226600;1276;22546;-73
2024/01/21 13:22:13;;;;;;;16.90;8.20;;;;;;;4.45;70.01;100151.59;226534;1273;22562;-74
2024/01/21 13:27:26;;;;;;;15.40;8.80;;;;;;;4.39;70.08;100148.90;226551;1270;22554;-75
2024/01/21 13:32:29;;;;;;;15.00;8.90;;;;;;;4.39;70.35;100157.48;226607;1272;22625;-74
2024/01/21 13:37:31;;;;;;;13.80;8.20;;;;;;;4.37;70.08;100153.42;226579;1274;23239;-75
2024/01/21 13:42:33;;;;;;;13.60;8.60;;;;;;;4.38;70.42;100149.73;226555;1274;22546;-75
2024/01/21 13:47:35;;;;;;;17.00;9.60;;;;;;;4.44;70.34;100149.73;226638;1273;22539;-74
2024/01/21 13:52:38;;;;;;;19.80;11.40;;;;;;;4.51;70.55;100143.80;226555;1276;22664;-74
2024/01/21 13:57:40;;;;;;;21.30;10.60;;;;;;;4.55;70.18;100161.52;226583;1273;22618;-74
2024/01/21 14:02:42;;;;;;;18.90;10.70;;;;;;;4.51;70.22;100180.95;226601;1273;22632;-74
2024/01/21 14:07:44;;;;;;;17.30;9.80;;;;;;;4.41;69.82;100184.72;226606;1274;23175;-73
2024/01/21 14:12:46;;;;;;;14.30;7.20;;;;;;;4.25;69.67;100182.58;226601;1272;22561;-74
2024/01/21 14:17:50;;;;;;;15.50;8.00;;;;;;;4.06;69.35;100179.66;226562;1270;22575;-74
2024/01/21 14:22:54;;;;;;;14.50;8.70;;;;;;;3.86;69.61;100176.88;226565;1275;22567;-75
2024/01/21 14:27:56;;;;;;;16.00;9.40;;;;;;;3.73;70.12;100157.46;226554;1273;22550;-74
2024/01/21 14:32:59;;;;;;;17.40;10.30;;;;;;;3.62;70.21;100167.15;226637;1271;22546;-75
2024/01/21 14:38:01;;;;;;;21.30;11.60;;;;;;;3.46;70.49;100167.57;226507;1270;22542;-74
2024/01/21 14:43:03;;;;;;;21.20;11.80;;;;;;;3.38;71.00;100163.16;226598;1273;22655;-74
2024/01/21 14:48:08;;;;;;;24.80;12.90;;;;;;;3.26;71.24;100152.12;226564;1273;22591;-75
2024/01/21 14:53:10;;;;;;;26.80;14.40;;;;;;;3.13;71.23;100148.66;226565;1273;23789;-74
2024/01/21 14:58:12;;;;;;;26.80;15.10;;;;;;;3.00;71.43;100154.14;226577;1276;24267;-74
2024/01/21 15:03:14;;;;;;;28.50;15.90;;;;;;;2.82;71.31;100158.71;226561;1268;22550;-75
2024/01/21 15:08:16;;;;;;;32.40;16.80;;;;;;;2.63;71.54;100162.27;226479;1275;22623;-75
2024/01/21 15:13:25;;;;;;;27.40;16.10;;;;;;;2.45;71.47;100163.63;226500;1270;22554;-74
2024/01/21 15:18:28;;;;;;;20.60;11.50;;;;;;;2.30;71.69;100164.81;226552;1272;22547;-75
2024/01/21 15:23:36;;;;;;;19.00;11.10;;;;;;;2.16;71.82;100160.53;226405;1270;22563;-75
2024/01/21 15:28:38;;;;;;;23.70;11.90;;;;;;;2.03;72.08;100162.77;226540;1273;22546;-75
2024/01/21 15:33:40;;;;;;;23.20;12.00;;;;;;;1.91;72.07;100161.16;226599;1274;23629;-74
2024/01/21 15:38:42;;;;;;;23.20;12.90;;;;;;;1.79;72.26;100155.88;226571;1276;22559;-75
2024/01/21 15:43:44;;;;;;;25.20;14.90;;;;;;;1.66;72.46;100140.50;226487;1274;22743;-74
2024/01/21 15:48:46;;;;;;;33.10;18.00;;;;;;;1.53;72.71;100126.92;226558;1269;22550;-74
2024/01/21 15:53:48;;;;;;;33.60;19.90;;;;;;;1.39;72.84;100120.73;226602;1274;22608;-74
2024/01/21 15:58:51;;;;;;;41.50;21.80;;;;;;;1.22;73.24;100123.33;226573;1269;22654;-74
2024/01/21 16:03:53;;;;;;;39.80;21.40;;;;;;;1.07;73.29;100108.69;226496;1270;25293;-74
2024/01/21 16:08:55;;;;;;;39.90;21.50;;;;;;;0.92;73.51;100101.64;226575;1273;22565;-74
2024/01/21 16:13:58;;;;;;;38.10;21.40;;;;;;;0.79;73.67;100104.04;226562;1272;22542;-74
2024/01/21 16:19:03;;;;;;;38.10;21.40;;;;;;;0.68;73.85;100104.35;226618;1271;22542;-74
2024/01/21 16:24:06;;;;;;;32.90;17.80;;;;;;;0.59;74.07;100122.75;226503;1273;22570;-75
2024/01/21 16:29:08;;;;;;;38.80;20.50;;;;;;;0.53;74.07;100132.30;226675;1273;22969;-74
2024/01/21 16:34:10;;;;;;;36.60;20.90;;;;;;;0.49;74.32;100125.06;226602;1273;22591;-75
2024/01/21 16:39:12;;;;;;;34.00;19.30;;;;;;;0.48;74.32;100133.45;226578;1273;22553;-74
2024/01/21 16:44:17;;;;;;;35.70;20.10;;;;;;;0.49;74.47;100143.44;226607;1271;22571;-74
2024/01/21 16:49:19;;;;;;;33.20;18.90;;;;;;;0.50;74.63;100135.74;226607;1273;22645;-74
2024/01/21 16:54:21;;;;;;;32.00;18.80;;;;;;;0.50;74.71;100122.23;226653;1272;22561;-74
2024/01/21 16:59:23;;;;;;;36.40;20.40;;;;;;;0.48;74.54;100112.26;226594;1273;22598;-74
2024/01/21 17:04:25;;;;;;;40.20;22.40;;;;;;;0.43;74.56;100118.15;226621;1273;22547;-74
2024/01/21 17:09:28;;;;;;;35.40;22.10;;;;;;;0.37;74.79;100121.09;226597;1268;22578;-75
2024/01/21 17:14:31;;;;;;;37.20;22.50;;;;;;;0.32;74.69;100133.35;226589;1271;25337;-74
2024/01/21 17:19:34;;;;;;;38.60;22.60;;;;;;;0.26;74.85;100123.13;226634;1268;22572;-75
2024/01/21 17:24:36;;;;;;;41.00;22.70;;;;;;;0.21;74.92;100115.96;226558;1271;22553;-74
2024/01/21 17:29:39;;;;;;;41.90;24.70;;;;;;;0.15;74.93;100112.35;226531;1269;24566;-75
2024/01/21 17:34:41;;;;;;;44.30;25.60;;;;;;;0.09;75.18;100119.09;226461;1273;22588;-73
2024/01/21 17:39:43;;;;;;;45.40;25.40;;;;;;;0.06;74.98;100119.84;226572;1273;22561;-75
2024/01/21 17:44:48;;;;;;;42.50;24.70;;;;;;;0.04;75.23;100110.76;226571;1273;22603;-73
2024/01/21 17:49:50;;;;;;;42.30;25.10;;;;;;;0.02;75.32;100108.05;226575;1271;22697;-74
2024/01/21 17:54:52;;;;;;;41.90;23.80;;;;;;;-0.01;75.46;100098.88;226499;1273;22559;-73
2024/01/21 17:59:54;;;;;;;45.20;24.60;;;;;;;-0.03;75.15;100095.03;226377;1276;25270;-74
2024/01/21 18:04:58;;;;;;;50.70;27.30;;;;;;;-0.03;75.36;100099.38;226626;1273;22584;-74
2024/01/21 18:10:00;;;;;;;50.60;28.20;;;;;;;-0.01;75.35;100095.80;226557;1268;22553;-75
2024/01/21 18:15:06;;;;;;;52.10;29.80;;;;;;;0.01;75.23;100098.44;226534;1271;22563;-74
2024/01/21 18:20:11;;;;;;;48.00;28.10;;;;;;;0.00;75.15;100107.18;226604;1268;22610;-75
2024/01/21 18:25:14;;;;;;;57.30;31.60;;;;;;;-0.03;75.05;100094.86;226574;1268;24303;-74
2024/01/21 18:30:16;;;;;;;52.60;29.00;;;;;;;-0.04;75.38;100106.02;226580;1274;22973;-74
2024/01/21 18:35:18;;;;;;;48.50;27.50;;;;;;;-0.06;75.22;100125.02;226574;1273;22553;-74
2024/01/21 18:40:20;;;;;;;49.70;28.20;;;;;;;-0.09;75.10;100111.68;226585;1276;25640;-74
2024/01/21 18:45:22;;;;;;;44.10;26.30;;;;;;;-0.14;75.06;100086.98;226630;1260;22557;-74
2024/01/21 18:50:24;;;;;;;47.30;27.20;;;;;;;-0.15;75.37;100056.96;226560;1268;22727;-74
2024/01/21 18:55:26;;;;;;;49.10;28.10;;;;;;;-0.17;75.22;100044.42;226518;1274;22678;-74
2024/01/21 19:00:29;;;;;;;45.30;25.20;;;;;;;-0.19;75.38;100015.46;226613;1276;22563;-75
2024/01/21 19:05:32;;;;;;;39.80;20.50;;;;;;;-0.19;75.58;100008.39;226706;1272;22605;-74
2024/01/21 19:10:34;;;;;;;33.50;18.50;;;;;;;-0.20;74.78;100043.39;226539;1271;22842;-74
2024/01/21 19:15:37;;;;;;;26.60;14.90;;;;;;;-0.16;74.14;100049.55;226566;1273;25944;-74
2024/01/21 19:20:42;;;;;;;23.50;13.50;;;;;;;-0.09;73.69;100030.45;226571;1274;22545;-74
2024/01/21 19:25:44;;;;;;;23.70;13.40;;;;;;;-0.05;73.25;100026.77;226593;1271;22542;-74
2024/01/21 19:30:46;;;;;;;21.00;11.00;;;;;;;-0.03;72.69;100020.75;226569;1273;23053;-74
2024/01/21 19:35:48;;;;;;;17.80;10.90;;;;;;;-0.03;72.30;100032.89;226448;1273;24208;-75
2024/01/21 19:40:50;;;;;;;21.30;9.80;;;;;;;-0.02;71.78;100050.34;226486;1271;22556;-74
2024/01/21 19:45:53;;;;;;;18.30;10.00;;;;;;;-0.04;71.61;100045.40;226599;1272;22567;-75
2024/01/21 19:50:56;;;;;;;19.80;11.30;;;;;;;-0.08;71.25;100041.13;226610;1273;22556;-74
2024/01/21 19:55:58;;;;;;;19.20;9.40;;;;;;;-0.14;71.01;100024.15;226254;1273;400968;-73
2024/01/21 20:01:00;;;;;;;19.60;9.80;;;;;;;-0.20;70.88;100012.09;226630;1257;22553;-74
2024/01/21 20:06:03;;;;;;;21.20;9.00;;;;;;;-0.25;70.51;100016.16;226632;1269;22550;-74
2024/01/21 20:11:05;;;;;;;14.30;6.80;;;;;;;-0.21;70.01;100020.95;226703;1274;22571;-74
2024/01/21 20:16:08;;;;;;;14.90;8.00;;;;;;;-0.16;69.43;100027.10;226629;1257;22581;-75
2024/01/21 20:21:10;;;;;;;12.90;6.50;;;;;;;-0.16;69.18;100028.98;226668;1269;22535;-75
2024/01/21 20:26:12;;;;;;;14.10;6.70;;;;;;;-0.14;68.59;100027.30;226651;1276;26240;-75
2024/01/21 20:31:15;;;;;;;12.40;6.40;;;;;;;-0.12;67.97;100021.64;226622;1272;22579;-75
2024/01/21 20:36:18;;;;;;;12.00;5.70;;;;;;;-0.12;67.59;100028.00;226665;1268;24932;-75
2024/01/21 20:41:20;;;;;;;9.80;5.10;;;;;;;-0.10;67.18;100017.71;226542;1272;22544;-75
2024/01/21 20:46:23;;;;;;;8.30;4.10;;;;;;;-0.03;66.70;100012.96;226627;1273;22576;-74
2024/01/21 20:51:25;;;;;;;11.90;5.00;;;;;;;-0.04;66.05;100002.80;226606;1268;22654;-74
2024/01/21 20:56:27;;;;;;;10.20;5.30;;;;;;;-0.06;65.86;99991.33;226668;1268;22595;-74
2024/01/21 21:01:31;;;;;;;9.90;4.90;;;;;;;-0.07;65.81;99986.52;226613;1273;22557;-74
2024/01/21 21:06:34;;;;;;;8.10;4.60;;;;;;;-0.08;65.61;99985.73;226629;1269;27451;-74
2024/01/21 21:11:36;;;;;;;8.80;4.50;;;;;;;-0.10;65.53;99975.29;226617;1273;23315;-75
2024/01/21 21:16:38;;;;;;;9.00;4.30;;;;;;;-0.07;65.17;99957.77;226579;1272;22569;-74
2024/01/21 21:21:44;;;;;;;9.40;5.00;;;;;;;-0.03;64.73;99953.91;226692;1272;22713;-74
2024/01/21 21:26:46;;;;;;;10.70;5.00;;;;;;;0.03;64.37;99950.92;226681;1268;22922;-75
2024/01/21 21:31:48;;;;;;;6.80;3.70;;;;;;;0.03;64.17;99952.50;226567;1269;22577;-74
2024/01/21 21:36:49;;;;;;;5.70;3.20;;;;;;;0.04;63.96;99949.50;226568;1271;25352;-74
2024/01/21 21:41:51;;;;;;;7.80;3.90;;;;;;;0.05;63.98;99958.30;226585;1272;22735;-74
2024/01/21 21:46:55;;;;;;;7.00;3.70;;;;;;;0.03;63.60;99967.76;226571;1271;22608;-74
2024/01/21 21:51:57;;;;;;;6.40;2.70;;;;;;;0.04;63.29;99962.80;226630;1272;22691;-75
2024/01/21 21:57:00;;;;;;;6.30;3.10;;;;;;;0.11;63.21;99963.28;226655;1271;22549;-75
2024/01/21 22:02:02;;;;;;;6.70;3.80;;;;;;;0.15;62.60;99964.91;226628;1269;24275;-74
2024/01/21 22:07:07;;;;;;;9.60;4.40;;;;;;;0.16;63.14;99955.52;226632;1276;22568;-74
2024/01/21 22:12:10;;;;;;;5.80;3.80;;;;;;;0.13;63.09;99958.46;226590;1272;22559;-74
2024/01/21 22:17:12;;;;;;;8.00;4.10;;;;;;;0.12;62.79;99965.98;226582;1272;22551;-74
2024/01/21 22:22:15;;;;;;;8.40;4.20;;;;;;;0.04;63.11;99957.98;226499;1274;22554;-74
2024/01/21 22:27:19;;;;;;;7.60;4.10;;;;;;;-0.02;63.23;99955.21;226608;1274;22546;-74
2024/01/21 22:32:21;;;;;;;6.20;3.70;;;;;;;-0.04;63.24;99943.41;226681;1271;25256;-73
2024/01/21 22:37:23;;;;;;;8.40;4.20;;;;;;;-0.06;63.05;99934.50;226655;1253;22543;-74
2024/01/21 22:42:25;;;;;;;7.20;4.40;;;;;;;-0.08;63.13;99925.09;226595;1274;22638;-73
2024/01/21 22:47:27;;;;;;;9.70;5.10;;;;;;;-0.11;63.67;99915.56;226536;1272;22577;-73